Sun Universe — 3FOQ4 — position and weather

sailwx.info

Track history (hours):
 
Tides and Currents Weather Stations Pressure Air Temp Water Temp Dewpoint Dewpoint Depression Visibility Wind Speed Wind Dir Waves Ship Positions

Sun Universe

Last reported at 2015-Jun-28 02:11 UTC. Time now 2015-Jul-02 00:51 UTC.
Position N 25°59' E 119°48'.

Length 116 m; draft 5.3 m.

Type: Cargo ship. MMSI: 371647000.

Date/timePositionNaut miles runAvg speedWind from/ knotsBaromVisibWave heightAir tempDewpointWater temp
2015-Jun-28 02:11N 25°59' E 119°48'0 0.0
2015-Jun-27 07:18N 25°58' E 119°48'0 0.0
2015-Jun-27 02:12N 25°58' E 119°48'0 0.0
2015-Jun-26 02:12N 25°58' E 119°48'0 0.0
2015-Jun-25 20:30N 25°58' E 119°48'0 0.0
2015-Jun-24 18:30N 25°58' E 119°48'0 0.0
2015-Jun-24 17:12N 25°58' E 119°48'0 0.0
2015-Jun-23 20:12N 25°58' E 119°48'0 0.0
2015-Jun-23 19:18N 25°58' E 119°48'0 0.0
2015-Jun-23 18:54N 25°58' E 119°48'0 0.0
2015-Jun-22 19:06N 25°58' E 119°48'0 0.0
2015-Jun-22 17:24N 25°58' E 119°48'0 0.0
2015-Jun-22 16:30N 25°58' E 119°48'0 0.0
2015-Jun-22 08:18N 25°58' E 119°48'0 0.0
2015-Jun-22 06:30N 25°58' E 119°48'0 0.0
2015-Jun-22 05:30N 25°58' E 119°48'0 0.0
2015-Jun-22 04:30N 25°58' E 119°48'0 0.0
2015-Jun-22 02:18N 25°58' E 119°48'0 0.0
2015-Jun-21 21:24N 25°58' E 119°48'0 0.0
2015-Jun-21 20:12N 25°58' E 119°48'0 0.0
2015-Jun-21 17:30N 25°58' E 119°48'0 0.0
2015-Jun-21 15:18N 25°58' E 119°48'0 0.0
2015-Jun-21 14:24N 25°58' E 119°48'0 0.0
2015-Jun-21 13:30N 25°58' E 119°48'0 0.0
2015-Jun-21 12:24N 25°58' E 119°48'0 0.0
2015-Jun-21 11:24N 25°58' E 119°48'0 0.0
2015-Jun-21 04:18N 25°58' E 119°48'0 0.0
2015-Jun-21 03:18N 25°58' E 119°48'0 0.0
2015-Jun-21 02:24N 25°58' E 119°48'0 0.0
2015-Jun-20 21:24N 25°58' E 119°48'0 0.1
2015-Jun-20 20:30N 25°58' E 119°48'0 0.0
2015-Jun-20 17:24N 25°58' E 119°48'0 0.0
2015-Jun-20 16:24N 25°58' E 119°48'0 0.0
2015-Jun-20 15:18N 25°58' E 119°48'0 0.0
2015-Jun-20 13:30N 25°58' E 119°48'0 0.0
2015-Jun-20 12:24N 25°58' E 119°48'0 0.0
2015-Jun-20 04:18N 25°58' E 119°48'0 0.0
2015-Jun-19 16:30N 25°58' E 119°48'0 0.0
2015-Jun-19 14:18N 25°58' E 119°48'0 0.0
2015-Jun-19 13:30N 25°58' E 119°48'0 0.0
2015-Jun-19 12:30N 25°58' E 119°48'0 0.0
2015-Jun-19 11:18N 25°58' E 119°48'0 0.0
2015-Jun-19 08:18N 25°58' E 119°48'0 0.0
2015-Jun-19 06:24N 25°58' E 119°48'1 0.7
2015-Jun-19 05:29N 25°59' E 119°48'9 7.8
2015-Jun-19 04:19N 26°06' E 119°41'6 8.2
2015-Jun-19 03:33N 26°08' E 119°35'8 8.0
2015-Jun-19 02:33N 26°01' E 119°30'1 0.8
2015-Jun-19 01:29N 26°01' E 119°29'0 0.0
2015-Jun-19 00:29N 26°01' E 119°29'0 0.0
2015-Jun-18 23:23N 26°01' E 119°29'0 0.0
2015-Jun-18 22:23N 26°01' E 119°29'0 0.0
2015-Jun-18 21:29N 26°01' E 119°29'0 0.0
2015-Jun-18 20:29N 26°01' E 119°29'0 0.0
2015-Jun-18 19:29N 26°01' E 119°29'0 0.0
2015-Jun-18 18:29N 26°01' E 119°29'0 0.0
2015-Jun-18 17:29N 26°01' E 119°29'0 0.0
2015-Jun-18 16:29N 26°01' E 119°29'0 0.0
2015-Jun-18 15:29N 26°01' E 119°29'0 0.0
2015-Jun-18 14:29N 26°01' E 119°29'0 0.0
2015-Jun-18 13:23N 26°01' E 119°29'0 0.0
2015-Jun-18 12:29N 26°01' E 119°29'0 0.0
2015-Jun-18 11:29N 26°01' E 119°29'0 0.0
2015-Jun-18 10:29N 26°01' E 119°29'0 0.0
2015-Jun-18 09:17N 26°01' E 119°29'0 0.0
2015-Jun-18 08:29N 26°01' E 119°29'0 0.0
2015-Jun-18 07:29N 26°01' E 119°29'0 0.0
2015-Jun-18 06:29N 26°01' E 119°29'0 0.0
2015-Jun-18 05:29N 26°01' E 119°29'0 0.0
2015-Jun-18 04:29N 26°01' E 119°29'0 0.0
2015-Jun-18 03:29N 26°01' E 119°29'0 0.0
2015-Jun-18 02:29N 26°01' E 119°29'  
Track history (hours):
 
Tides and Currents Weather Stations Pressure Air Temp Water Temp Dewpoint Dewpoint Depression Visibility Wind Speed Wind Dir Waves Ship Positions

Sun Universe

Last reported at 2015-Jun-28 02:11 UTC. Time now 2015-Jul-02 00:51 UTC.
Position N 25°59' E 119°48'.

Length 116 m; draft 5.3 m.

Type: Cargo ship. MMSI: 371647000.

Date/timePositionNaut miles runAvg speedWind from/ knotsBaromVisibWave heightAir tempDewpointWater temp
2015-Jun-28 02:11N 25°59' E 119°48'0 0.0
2015-Jun-27 07:18N 25°58' E 119°48'0 0.0
2015-Jun-27 02:12N 25°58' E 119°48'0 0.0
2015-Jun-26 02:12N 25°58' E 119°48'0 0.0
2015-Jun-25 20:30N 25°58' E 119°48'0 0.0
2015-Jun-24 18:30N 25°58' E 119°48'0 0.0
2015-Jun-24 17:12N 25°58' E 119°48'0 0.0
2015-Jun-23 20:12N 25°58' E 119°48'0 0.0
2015-Jun-23 19:18N 25°58' E 119°48'0 0.0
2015-Jun-23 18:54N 25°58' E 119°48'0 0.0
2015-Jun-22 19:06N 25°58' E 119°48'0 0.0
2015-Jun-22 17:24N 25°58' E 119°48'0 0.0
2015-Jun-22 16:30N 25°58' E 119°48'0 0.0
2015-Jun-22 08:18N 25°58' E 119°48'0 0.0
2015-Jun-22 06:30N 25°58' E 119°48'0 0.0
2015-Jun-22 05:30N 25°58' E 119°48'0 0.0
2015-Jun-22 04:30N 25°58' E 119°48'0 0.0
2015-Jun-22 02:18N 25°58' E 119°48'0 0.0
2015-Jun-21 21:24N 25°58' E 119°48'0 0.0
2015-Jun-21 20:12N 25°58' E 119°48'0 0.0
2015-Jun-21 17:30N 25°58' E 119°48'0 0.0
2015-Jun-21 15:18N 25°58' E 119°48'0 0.0
2015-Jun-21 14:24N 25°58' E 119°48'0 0.0
2015-Jun-21 13:30N 25°58' E 119°48'0 0.0
2015-Jun-21 12:24N 25°58' E 119°48'0 0.0
2015-Jun-21 11:24N 25°58' E 119°48'0 0.0
2015-Jun-21 04:18N 25°58' E 119°48'0 0.0
2015-Jun-21 03:18N 25°58' E 119°48'0 0.0
2015-Jun-21 02:24N 25°58' E 119°48'0 0.0
2015-Jun-20 21:24N 25°58' E 119°48'0 0.1
2015-Jun-20 20:30N 25°58' E 119°48'0 0.0
2015-Jun-20 17:24N 25°58' E 119°48'0 0.0
2015-Jun-20 16:24N 25°58' E 119°48'0 0.0
2015-Jun-20 15:18N 25°58' E 119°48'0 0.0
2015-Jun-20 13:30N 25°58' E 119°48'0 0.0
2015-Jun-20 12:24N 25°58' E 119°48'0 0.0
2015-Jun-20 04:18N 25°58' E 119°48'0 0.0
2015-Jun-19 16:30N 25°58' E 119°48'0 0.0
2015-Jun-19 14:18N 25°58' E 119°48'0 0.0
2015-Jun-19 13:30N 25°58' E 119°48'0 0.0
2015-Jun-19 12:30N 25°58' E 119°48'0 0.0
2015-Jun-19 11:18N 25°58' E 119°48'0 0.0
2015-Jun-19 08:18N 25°58' E 119°48'0 0.0
2015-Jun-19 06:24N 25°58' E 119°48'1 0.7
2015-Jun-19 05:29N 25°59' E 119°48'9 7.8
2015-Jun-19 04:19N 26°06' E 119°41'6 8.2
2015-Jun-19 03:33N 26°08' E 119°35'8 8.0
2015-Jun-19 02:33N 26°01' E 119°30'1 0.8
2015-Jun-19 01:29N 26°01' E 119°29'0 0.0
2015-Jun-19 00:29N 26°01' E 119°29'0 0.0
2015-Jun-18 23:23N 26°01' E 119°29'0 0.0
2015-Jun-18 22:23N 26°01' E 119°29'0 0.0
2015-Jun-18 21:29N 26°01' E 119°29'0 0.0
2015-Jun-18 20:29N 26°01' E 119°29'0 0.0
2015-Jun-18 19:29N 26°01' E 119°29'0 0.0
2015-Jun-18 18:29N 26°01' E 119°29'0 0.0
2015-Jun-18 17:29N 26°01' E 119°29'0 0.0
2015-Jun-18 16:29N 26°01' E 119°29'0 0.0
2015-Jun-18 15:29N 26°01' E 119°29'0 0.0
2015-Jun-18 14:29N 26°01' E 119°29'0 0.0
2015-Jun-18 13:23N 26°01' E 119°29'0 0.0
2015-Jun-18 12:29N 26°01' E 119°29'0 0.0
2015-Jun-18 11:29N 26°01' E 119°29'0 0.0
2015-Jun-18 10:29N 26°01' E 119°29'0 0.0
2015-Jun-18 09:17N 26°01' E 119°29'0 0.0
2015-Jun-18 08:29N 26°01' E 119°29'0 0.0
2015-Jun-18 07:29N 26°01' E 119°29'0 0.0
2015-Jun-18 06:29N 26°01' E 119°29'0 0.0
2015-Jun-18 05:29N 26°01' E 119°29'0 0.0
2015-Jun-18 04:29N 26°01' E 119°29'0 0.0
2015-Jun-18 03:29N 26°01' E 119°29'0 0.0
2015-Jun-18 02:29N 26°01' E 119°29'  

Dump ship's entire track history